createdAt,value
2019-04-04T00:00:49.074Z,41.57
2019-04-04T00:01:49.065Z,41.41
2019-04-04T00:02:49.758Z,42.06
2019-04-04T00:03:51.504Z,41.41
2019-04-04T00:04:52.308Z,41.41
2019-04-04T00:05:49.048Z,41.57
2019-04-04T00:06:49.042Z,41.41
2019-04-04T00:07:49.042Z,41.41
2019-04-04T00:08:49.045Z,41.41
2019-04-04T00:09:49.034Z,41.73
2019-04-04T00:10:49.022Z,41.41
2019-04-04T00:11:49.011Z,41.57
2019-04-04T00:12:49.009Z,41.41
2019-04-04T00:13:48.995Z,41.41
2019-04-04T00:14:48.990Z,41.73
2019-04-04T00:15:48.980Z,43.18
2019-04-04T00:16:49.383Z,41.41
2019-04-04T00:17:48.970Z,41.73
2019-04-04T00:18:48.949Z,41.57
2019-04-04T00:19:48.950Z,41.73
2019-04-04T00:20:48.941Z,41.41
2019-04-04T00:21:48.931Z,45.12
2019-04-04T00:22:48.925Z,41.73
2019-04-04T00:23:48.918Z,42.06
2019-04-04T00:24:48.911Z,41.57
2019-04-04T00:25:48.908Z,41.57
2019-04-04T00:26:48.889Z,46.89
2019-04-04T00:27:48.887Z,41.57
2019-04-04T00:28:48.879Z,41.41
2019-04-04T00:29:48.868Z,41.41
2019-04-04T00:30:48.937Z,41.73
2019-04-04T00:31:49.831Z,41.73
2019-04-04T00:32:50.903Z,41.73
2019-04-04T00:33:48.865Z,42.06
2019-04-04T00:34:48.853Z,42.86
2019-04-04T00:35:48.855Z,41.89
2019-04-04T00:36:48.848Z,42.54
2019-04-04T00:37:48.826Z,42.06
2019-04-04T00:38:48.818Z,41.41
2019-04-04T00:39:48.814Z,42.06
2019-04-04T00:40:48.805Z,41.57
2019-04-04T00:41:48.807Z,41.89
2019-04-04T00:42:48.787Z,41.41
2019-04-04T00:43:49.887Z,41.41
2019-04-04T00:44:48.772Z,41.41
2019-04-04T00:45:48.767Z,41.57
2019-04-04T00:46:48.761Z,42.06
2019-04-04T00:47:48.808Z,41.73
2019-04-04T00:48:48.737Z,41.57
2019-04-04T00:49:48.742Z,42.86
2019-04-04T00:50:48.732Z,41.41
2019-04-04T00:51:48.729Z,41.57
2019-04-04T00:52:48.722Z,41.41
2019-04-04T00:53:48.715Z,41.57
2019-04-04T00:54:48.702Z,42.06
2019-04-04T00:55:48.691Z,41.73
2019-04-04T00:56:48.833Z,41.89
2019-04-04T00:57:50.397Z,41.57
2019-04-04T00:58:51.779Z,41.41
2019-04-04T00:59:49.667Z,41.41
2019-04-04T01:00:48.663Z,41.73
2019-04-04T01:01:48.652Z,41.57
2019-04-04T01:02:48.657Z,42.06
2019-04-04T01:03:48.647Z,41.41
2019-04-04T01:04:48.636Z,41.41
2019-04-04T01:05:48.621Z,41.57
2019-04-04T01:06:48.612Z,41.57
2019-04-04T01:07:48.609Z,41.41
2019-04-04T01:08:48.606Z,41.57
2019-04-04T01:09:48.587Z,41.57
2019-04-04T01:10:49.816Z,41.41
2019-04-04T01:11:51.242Z,41.57
2019-04-04T01:12:50.195Z,41.89
2019-04-04T01:13:48.571Z,42.22
2019-04-04T01:14:48.561Z,41.41
2019-04-04T01:15:48.548Z,41.57
2019-04-04T01:16:48.541Z,41.89
2019-04-04T01:17:48.540Z,41.41
2019-04-04T01:18:48.530Z,41.57
2019-04-04T01:19:49.004Z,41.73
2019-04-04T01:20:50.664Z,41.73
2019-04-04T01:21:49.519Z,41.41
2019-04-04T01:22:48.496Z,41.41
2019-04-04T01:23:48.501Z,41.41
2019-04-04T01:24:48.487Z,41.41
2019-04-04T01:25:48.475Z,41.89
2019-04-04T01:26:48.472Z,41.89
2019-04-04T01:27:48.463Z,41.41
2019-04-04T01:28:48.452Z,41.41
2019-04-04T01:29:48.471Z,42.06
2019-04-04T01:30:48.461Z,41.25
2019-04-04T01:31:48.449Z,47.05
2019-04-04T01:32:48.776Z,41.41
2019-04-04T01:33:50.894Z,41.57
2019-04-04T01:34:51.759Z,41.89
2019-04-04T01:35:48.428Z,41.41
2019-04-04T01:36:48.415Z,41.57
2019-04-04T01:37:48.411Z,41.09
2019-04-04T01:38:48.398Z,42.06
2019-04-04T01:39:48.403Z,42.06
2019-04-04T01:40:48.395Z,41.41
2019-04-04T01:41:48.378Z,41.41
2019-04-04T01:42:48.369Z,41.25
2019-04-04T01:43:48.367Z,41.57
2019-04-04T01:44:48.358Z,44.63
2019-04-04T01:45:48.354Z,41.73
2019-04-04T01:46:48.342Z,41.41
2019-04-04T01:47:48.673Z,41.41
2019-04-04T01:48:49.959Z,45.12
2019-04-04T01:49:49.978Z,41.57
2019-04-04T01:50:48.314Z,41.89
2019-04-04T01:51:48.315Z,41.89
2019-04-04T01:52:48.296Z,41.89
2019-04-04T01:53:48.288Z,41.41
2019-04-04T01:54:48.285Z,41.57
2019-04-04T01:55:48.277Z,41.73
2019-04-04T01:56:48.277Z,41.41
2019-04-04T01:57:48.266Z,41.57
2019-04-04T01:58:48.259Z,41.57
2019-04-04T01:59:48.240Z,41.89
2019-04-04T02:00:49.250Z,41.73
2019-04-04T02:01:48.238Z,41.41
2019-04-04T02:02:49.842Z,41.89
2019-04-04T02:03:48.220Z,41.73
2019-04-04T02:04:48.212Z,42.54
2019-04-04T02:05:48.210Z,41.41
2019-04-04T02:06:48.200Z,41.25
2019-04-04T02:07:48.191Z,41.41
2019-04-04T02:08:48.178Z,41.25
2019-04-04T02:09:48.171Z,41.73
2019-04-04T02:10:48.160Z,41.57
2019-04-04T02:11:48.165Z,41.89
2019-04-04T02:12:48.159Z,41.89
2019-04-04T02:13:48.145Z,41.57
2019-04-04T02:14:48.130Z,41.41
2019-04-04T02:15:48.149Z,41.41
2019-04-04T02:16:50.805Z,41.41
2019-04-04T02:17:49.113Z,42.38
2019-04-04T02:18:48.106Z,41.57
2019-04-04T02:19:48.095Z,41.57
2019-04-04T02:20:48.090Z,41.57
2019-04-04T02:21:48.083Z,44.63
2019-04-04T02:22:48.081Z,41.73
2019-04-04T02:23:48.067Z,41.57
2019-04-04T02:24:48.061Z,41.41
2019-04-04T02:25:48.051Z,45.12
2019-04-04T02:26:48.046Z,41.57
2019-04-04T02:27:48.050Z,41.73
2019-04-04T02:28:48.030Z,41.57
2019-04-04T02:29:48.028Z,41.41
2019-04-04T02:30:48.483Z,41.41
2019-04-04T02:31:53.007Z,41.89
2019-04-04T02:32:47.998Z,41.57
2019-04-04T02:33:47.989Z,41.57
2019-04-04T02:34:47.988Z,41.57
2019-04-04T02:35:47.975Z,41.57
2019-04-04T02:36:49.409Z,41.25
2019-04-04T02:37:48.980Z,41.73
2019-04-04T02:38:47.975Z,41.41
2019-04-04T02:39:47.970Z,41.57
2019-04-04T02:40:47.983Z,41.57
2019-04-04T02:41:49.187Z,41.73
2019-04-04T02:42:48.953Z,41.41
2019-04-04T02:43:47.931Z,42.06
2019-04-04T02:44:48.934Z,42.06
2019-04-04T02:45:47.927Z,41.57
2019-04-04T02:46:47.919Z,41.41
2019-04-04T02:47:51.194Z,41.73
2019-04-04T02:48:47.900Z,41.41
2019-04-04T02:49:47.890Z,41.41
2019-04-04T02:50:47.889Z,41.73
2019-04-04T02:51:47.880Z,41.41
2019-04-04T02:52:47.868Z,41.57
2019-04-04T02:53:51.913Z,41.41
2019-04-04T02:54:47.864Z,41.57
2019-04-04T02:55:47.854Z,41.73
2019-04-04T02:56:47.852Z,43.83
2019-04-04T02:57:48.839Z,41.73
2019-04-04T02:58:47.823Z,41.57
2019-04-04T02:59:47.839Z,42.22
2019-04-04T03:00:47.825Z,47.70
2019-04-04T03:01:47.822Z,41.57
2019-04-04T03:02:47.810Z,41.73
2019-04-04T03:03:47.804Z,41.89
2019-04-04T03:04:47.812Z,41.57
2019-04-04T03:05:50.708Z,42.86
2019-04-04T03:06:48.800Z,41.57
2019-04-04T03:07:47.785Z,41.57
2019-04-04T03:08:47.776Z,41.41
2019-04-04T03:09:47.781Z,41.57
2019-04-04T03:10:49.326Z,41.73
2019-04-04T03:11:48.774Z,44.63
2019-04-04T03:12:47.765Z,41.57
2019-04-04T03:13:47.762Z,41.57
2019-04-04T03:14:50.423Z,41.57
2019-04-04T03:15:48.761Z,41.73
2019-04-04T03:16:47.740Z,41.89
2019-04-04T03:17:47.737Z,42.70
2019-04-04T03:18:47.730Z,41.89
2019-04-04T03:19:47.729Z,42.06
2019-04-04T03:20:50.375Z,41.73
2019-04-04T03:21:48.696Z,42.86
2019-04-04T03:22:47.702Z,42.06
2019-04-04T03:23:47.680Z,41.73
2019-04-04T03:24:47.686Z,41.89
2019-04-04T03:25:48.220Z,41.73
2019-04-04T03:26:52.208Z,41.73
2019-04-04T03:27:47.661Z,42.38
2019-04-04T03:28:47.661Z,42.22
2019-04-04T03:29:47.647Z,41.89
2019-04-04T03:31:00.612Z,41.41
2019-04-04T03:31:48.634Z,42.06
2019-04-04T03:32:54.091Z,42.22
2019-04-04T03:33:48.611Z,41.57
2019-04-04T03:34:49.944Z,42.22
2019-04-04T03:35:48.594Z,42.38
2019-04-04T03:36:47.587Z,42.38
2019-04-04T03:37:47.613Z,42.38
2019-04-04T03:38:47.578Z,45.12
2019-04-04T03:39:51.904Z,41.89
2019-04-04T03:40:48.555Z,42.86
2019-04-04T03:41:47.549Z,42.38
2019-04-04T03:42:47.547Z,45.28
2019-04-04T03:43:48.874Z,43.18
2019-04-04T03:44:52.854Z,42.22
2019-04-04T03:45:49.527Z,42.06
2019-04-04T03:46:47.530Z,42.38
2019-04-04T03:47:47.528Z,42.22
2019-04-04T03:48:49.923Z,42.06
2019-04-04T03:49:48.504Z,42.86
2019-04-04T03:50:47.501Z,42.22
2019-04-04T03:51:47.499Z,42.38
2019-04-04T03:52:47.488Z,43.02
2019-04-04T03:53:49.386Z,44.96
2019-04-04T03:54:48.492Z,42.54
2019-04-04T03:55:47.479Z,43.02
2019-04-04T03:56:47.475Z,42.38
2019-04-04T03:57:47.468Z,42.22
2019-04-04T03:58:47.463Z,42.38
2019-04-04T03:59:47.456Z,43.02
2019-04-04T04:00:47.450Z,42.38
2019-04-04T04:01:47.459Z,41.89
2019-04-04T04:02:49.685Z,42.38
2019-04-04T04:03:48.460Z,42.70
2019-04-04T04:04:47.458Z,45.60
2019-04-04T04:05:47.434Z,42.38
2019-04-04T04:06:47.420Z,43.34
2019-04-04T04:07:48.065Z,47.37
2019-04-04T04:08:48.582Z,41.73
2019-04-04T04:09:47.408Z,48.50
2019-04-04T04:10:48.397Z,43.51
2019-04-04T04:11:47.399Z,42.06
2019-04-04T04:12:47.390Z,43.18
2019-04-04T04:13:49.903Z,42.86
2019-04-04T04:14:47.378Z,42.86
2019-04-04T04:15:47.363Z,42.86
2019-04-04T04:16:47.356Z,42.86
2019-04-04T04:17:47.346Z,43.02
2019-04-04T04:18:47.343Z,42.70
2019-04-04T04:19:47.335Z,43.02
2019-04-04T04:20:47.323Z,43.18
2019-04-04T04:21:47.308Z,45.60
2019-04-04T04:22:50.333Z,42.54
2019-04-04T04:23:49.996Z,43.67
2019-04-04T04:24:48.335Z,42.54
2019-04-04T04:25:47.279Z,42.06
2019-04-04T04:26:47.425Z,42.70
2019-04-04T04:27:48.330Z,43.51
2019-04-04T04:28:52.184Z,42.22
2019-04-04T04:29:47.250Z,42.22
2019-04-04T04:30:47.248Z,42.22
2019-04-04T04:31:49.276Z,42.54
2019-04-04T04:32:48.227Z,42.22
2019-04-04T04:33:47.233Z,42.70
2019-04-04T04:34:47.213Z,42.86
2019-04-04T04:35:47.284Z,42.86
2019-04-04T04:36:48.087Z,42.06
2019-04-04T04:37:52.321Z,43.02
2019-04-04T04:38:48.182Z,41.89
2019-04-04T04:39:47.179Z,41.57
2019-04-04T04:40:48.052Z,42.70
2019-04-04T04:41:48.168Z,42.06
2019-04-04T04:42:47.152Z,42.70
2019-04-04T04:43:47.145Z,42.06
2019-04-04T04:44:47.131Z,41.73
2019-04-04T04:45:47.131Z,44.79
2019-04-04T04:46:49.745Z,41.89
2019-04-04T04:47:48.123Z,43.51
2019-04-04T04:48:47.111Z,44.47
2019-04-04T04:49:47.107Z,42.54
2019-04-04T04:50:47.097Z,42.86
2019-04-04T04:51:47.114Z,43.67
2019-04-04T04:52:47.681Z,42.70
2019-04-04T04:53:48.180Z,42.70
2019-04-04T04:54:47.061Z,42.38
2019-04-04T04:55:47.048Z,42.54
2019-04-04T04:56:47.053Z,41.73
2019-04-04T04:57:47.039Z,42.38
2019-04-04T04:58:47.028Z,44.47
2019-04-04T04:59:47.116Z,43.83
2019-04-04T05:00:47.330Z,44.63
2019-04-04T05:01:50.090Z,48.02
2019-04-04T05:02:48.004Z,43.02
2019-04-04T05:03:46.988Z,41.57
2019-04-04T05:04:46.978Z,43.99
2019-04-04T05:05:46.972Z,41.89
2019-04-04T05:06:46.961Z,43.34
2019-04-04T05:07:46.964Z,43.34
2019-04-04T05:08:46.945Z,44.31
2019-04-04T05:09:46.935Z,42.38
2019-04-04T05:10:46.926Z,43.02
2019-04-04T05:11:49.871Z,42.54
2019-04-04T05:12:46.913Z,42.38
2019-04-04T05:13:46.913Z,43.99
2019-04-04T05:14:46.897Z,44.63
2019-04-04T05:15:46.893Z,42.70
2019-04-04T05:16:46.881Z,42.22
2019-04-04T05:17:46.875Z,42.54
2019-04-04T05:18:48.170Z,44.47
2019-04-04T05:19:48.178Z,44.63
2019-04-04T05:20:46.859Z,42.06
2019-04-04T05:21:46.844Z,42.38
2019-04-04T05:22:46.840Z,42.38
2019-04-04T05:23:47.625Z,42.06
2019-04-04T05:25:07.095Z,45.76
2019-04-04T05:25:53.791Z,43.18
2019-04-04T05:26:48.812Z,42.54
2019-04-04T05:27:46.808Z,43.99
2019-04-04T05:28:46.826Z,47.05
2019-04-04T05:29:46.792Z,43.18
2019-04-04T05:30:47.181Z,42.86
2019-04-04T05:31:49.771Z,42.38
2019-04-04T05:32:47.768Z,42.38
2019-04-04T05:33:46.761Z,42.54
2019-04-04T05:34:46.775Z,42.70
2019-04-04T05:35:46.751Z,42.86
2019-04-04T05:36:46.749Z,42.86
2019-04-04T05:37:46.730Z,42.86
2019-04-04T05:38:47.299Z,42.86
2019-04-04T05:39:50.995Z,44.79
2019-04-04T05:40:46.706Z,42.86
2019-04-04T05:41:46.713Z,42.38
2019-04-04T05:42:46.690Z,42.38
2019-04-04T05:43:46.681Z,43.67
2019-04-04T05:44:46.681Z,44.15
2019-04-04T05:45:46.667Z,42.22
2019-04-04T05:46:46.658Z,42.54
2019-04-04T05:47:46.646Z,42.06
2019-04-04T05:48:46.637Z,42.06
2019-04-04T05:49:46.627Z,42.70
2019-04-04T05:50:46.631Z,42.54
2019-04-04T05:51:48.414Z,42.54
2019-04-04T05:52:46.627Z,44.79
2019-04-04T05:53:46.612Z,42.54
2019-04-04T05:54:46.609Z,44.15
2019-04-04T05:55:46.626Z,43.99
2019-04-04T05:56:48.612Z,42.06
2019-04-04T05:57:48.988Z,42.54
2019-04-04T05:58:46.585Z,42.38
2019-04-04T05:59:46.570Z,42.06
2019-04-04T06:00:46.562Z,42.70
2019-04-04T06:01:46.614Z,42.38
2019-04-04T06:02:46.562Z,44.31
2019-04-04T06:03:47.768Z,46.08
2019-04-04T06:04:48.876Z,42.70
2019-04-04T06:05:46.518Z,42.38
2019-04-04T06:06:46.520Z,42.54
2019-04-04T06:07:46.541Z,42.70
2019-04-04T06:08:46.504Z,41.89
2019-04-04T06:09:47.089Z,47.05
2019-04-04T06:10:48.029Z,42.54
2019-04-04T06:11:48.682Z,45.12
2019-04-04T06:12:46.453Z,46.25
2019-04-04T06:13:46.463Z,45.28
2019-04-04T06:14:46.447Z,42.86
2019-04-04T06:15:46.432Z,42.70
2019-04-04T06:16:46.430Z,43.02
2019-04-04T06:17:46.420Z,43.67
2019-04-04T06:18:49.077Z,42.22
2019-04-04T06:19:46.399Z,42.06
2019-04-04T06:20:48.388Z,42.86
2019-04-04T06:21:47.901Z,43.67
2019-04-04T06:22:47.411Z,43.99
2019-04-04T06:23:46.378Z,43.34
2019-04-04T06:24:46.366Z,45.28
2019-04-04T06:25:46.358Z,44.79
2019-04-04T06:26:46.351Z,45.28
2019-04-04T06:27:46.345Z,42.86
2019-04-04T06:28:46.333Z,46.25
2019-04-04T06:29:47.904Z,44.15
2019-04-04T06:30:47.312Z,42.54
2019-04-04T06:31:46.305Z,42.70
2019-04-04T06:32:46.307Z,42.06
2019-04-04T06:33:46.474Z,44.96
2019-04-04T06:34:46.293Z,44.31
2019-04-04T06:35:47.836Z,42.54
2019-04-04T06:36:49.104Z,42.70
2019-04-04T06:37:46.355Z,44.31
2019-04-04T06:38:46.320Z,42.54
2019-04-04T06:39:46.249Z,43.02
2019-04-04T06:40:46.232Z,43.99
2019-04-04T06:41:46.230Z,42.70
2019-04-04T06:42:46.220Z,43.34
2019-04-04T06:43:46.213Z,46.08
2019-04-04T06:44:46.207Z,45.28
2019-04-04T06:45:46.662Z,42.22
2019-04-04T06:46:47.188Z,42.06
2019-04-04T06:47:46.191Z,43.67
2019-04-04T06:48:46.185Z,42.54
2019-04-04T06:49:46.185Z,42.38
2019-04-04T06:50:46.167Z,42.22
2019-04-04T06:51:47.185Z,46.41
2019-04-04T06:52:48.302Z,42.22
2019-04-04T06:53:46.974Z,42.22
2019-04-04T06:54:47.193Z,42.22
2019-04-04T06:55:46.124Z,43.02
2019-04-04T06:56:46.118Z,43.34
2019-04-04T06:57:48.688Z,42.86
2019-04-04T06:58:47.102Z,42.86
2019-04-04T06:59:46.101Z,42.06
2019-04-04T07:00:48.648Z,42.38
2019-04-04T07:01:47.082Z,51.40
2019-04-04T07:02:47.392Z,42.54
2019-04-04T07:03:47.070Z,42.38
2019-04-04T07:04:46.061Z,42.70
2019-04-04T07:05:46.068Z,41.73
2019-04-04T07:06:46.055Z,42.38
2019-04-04T07:07:46.044Z,44.15
2019-04-04T07:08:46.857Z,42.86
2019-04-04T07:09:46.039Z,48.66
2019-04-04T07:10:57.379Z,42.06
2019-04-04T07:11:48.010Z,45.28
2019-04-04T07:12:48.787Z,42.38
2019-04-04T07:13:45.993Z,43.18
2019-04-04T07:14:49.323Z,42.38
2019-04-04T07:15:48.502Z,42.22
2019-04-04T07:16:48.002Z,43.34
2019-04-04T07:17:45.951Z,42.22
2019-04-04T07:18:45.949Z,44.47
2019-04-04T07:19:46.781Z,42.54
2019-04-04T07:20:48.355Z,42.70
2019-04-04T07:21:45.930Z,42.86
2019-04-04T07:22:45.913Z,42.54
2019-04-04T07:23:45.907Z,43.67
2019-04-04T07:24:45.904Z,42.86
2019-04-04T07:25:45.900Z,42.38
2019-04-04T07:26:46.076Z,45.92
2019-04-04T07:27:47.435Z,41.73
2019-04-04T07:28:45.884Z,44.96
2019-04-04T07:29:45.878Z,42.86
2019-04-04T07:30:45.934Z,42.22
2019-04-04T07:31:45.883Z,41.57
2019-04-04T07:32:45.887Z,43.99
2019-04-04T07:33:45.871Z,41.89
2019-04-04T07:34:45.971Z,43.67
2019-04-04T07:35:46.917Z,42.38
2019-04-04T07:36:45.855Z,42.38
2019-04-04T07:37:45.883Z,43.18
2019-04-04T07:38:45.824Z,42.70
2019-04-04T07:39:45.819Z,42.38
2019-04-04T07:40:45.809Z,42.86
2019-04-04T07:41:45.815Z,48.50
2019-04-04T07:42:48.001Z,42.54
2019-04-04T07:43:45.818Z,41.89
2019-04-04T07:44:45.789Z,43.34
2019-04-04T07:45:45.772Z,42.22
2019-04-04T07:46:46.038Z,43.51
2019-04-04T07:47:47.510Z,45.28
2019-04-04T07:48:45.759Z,41.89
2019-04-04T07:49:45.738Z,42.22
2019-04-04T07:50:45.740Z,42.54
2019-04-04T07:51:45.727Z,42.06
2019-04-04T07:52:45.739Z,43.34
2019-04-04T07:53:45.756Z,41.89
2019-04-04T07:54:45.721Z,41.89
2019-04-04T07:55:45.716Z,42.54
2019-04-04T07:56:48.682Z,45.44
2019-04-04T07:57:46.698Z,43.83
2019-04-04T07:58:45.783Z,42.06
2019-04-04T07:59:45.691Z,42.38
2019-04-04T08:00:45.678Z,44.31
2019-04-04T08:01:50.987Z,43.51
2019-04-04T08:02:47.660Z,42.86
2019-04-04T08:03:45.664Z,43.83
2019-04-04T08:04:45.675Z,59.14
2019-04-04T08:05:45.655Z,61.39
2019-04-04T08:06:45.672Z,59.78
2019-04-04T08:07:45.661Z,42.38
2019-04-04T08:08:45.655Z,42.70
2019-04-04T08:09:45.660Z,45.44
2019-04-04T08:10:45.650Z,42.22
2019-04-04T08:11:45.631Z,44.79
2019-04-04T08:12:45.637Z,42.22
2019-04-04T08:13:45.624Z,43.51
2019-04-04T08:14:45.615Z,42.06
2019-04-04T08:15:45.600Z,42.86
2019-04-04T08:16:46.666Z,42.54
2019-04-04T08:17:45.579Z,45.92
2019-04-04T08:18:45.570Z,42.70
2019-04-04T08:19:45.564Z,42.70
2019-04-04T08:20:45.565Z,44.96
2019-04-04T08:21:45.551Z,42.38
2019-04-04T08:22:45.541Z,42.38
2019-04-04T08:23:45.548Z,42.38
2019-04-04T08:24:45.529Z,42.38
2019-04-04T08:25:45.530Z,42.22
2019-04-04T08:26:45.513Z,42.54
2019-04-04T08:27:45.513Z,45.28
2019-04-04T08:28:45.505Z,42.86
2019-04-04T08:29:45.499Z,43.02
2019-04-04T08:30:45.573Z,43.18
2019-04-04T08:31:45.479Z,46.89
2019-04-04T08:32:45.471Z,44.96
2019-04-04T08:33:45.671Z,45.44
2019-04-04T08:34:45.454Z,42.38
2019-04-04T08:35:45.468Z,44.47
2019-04-04T08:36:45.485Z,46.57
2019-04-04T08:37:45.459Z,44.96
2019-04-04T08:38:45.471Z,56.40
2019-04-04T08:39:45.455Z,50.76
2019-04-04T08:40:46.298Z,42.86
2019-04-04T08:41:46.617Z,42.38
2019-04-04T08:42:46.025Z,42.06
2019-04-04T08:43:45.535Z,54.95
2019-04-04T08:44:45.787Z,42.54
2019-04-04T08:45:45.756Z,43.99
2019-04-04T08:46:45.504Z,42.86
2019-04-04T08:47:45.397Z,46.25
2019-04-04T08:48:45.383Z,47.70
2019-04-04T08:49:45.382Z,44.15
2019-04-04T08:50:45.380Z,42.06
2019-04-04T08:51:45.366Z,42.22
2019-04-04T08:52:45.451Z,42.86
2019-04-04T08:53:45.346Z,42.86
2019-04-04T08:54:45.350Z,42.38
2019-04-04T08:55:45.327Z,42.54
2019-04-04T08:56:45.328Z,41.89
2019-04-04T08:57:45.401Z,43.51
2019-04-04T08:58:45.312Z,43.51
2019-04-04T08:59:45.304Z,42.70
2019-04-04T09:00:45.297Z,44.31
2019-04-04T09:01:45.283Z,44.31
2019-04-04T09:02:45.277Z,43.34
2019-04-04T09:03:45.271Z,48.18
2019-04-04T09:04:45.260Z,44.96
2019-04-04T09:05:45.254Z,44.15
2019-04-04T09:06:45.264Z,56.88
2019-04-04T09:07:45.253Z,55.91
2019-04-04T09:08:45.263Z,55.59
2019-04-04T09:09:45.386Z,53.66
2019-04-04T09:10:45.254Z,44.47
2019-04-04T09:11:45.249Z,44.63
2019-04-04T09:12:45.242Z,53.01
2019-04-04T09:13:45.324Z,56.40
2019-04-04T09:14:45.222Z,54.30
2019-04-04T09:15:45.212Z,51.88
2019-04-04T09:16:45.210Z,50.92
2019-04-04T09:17:45.210Z,48.50
2019-04-04T09:18:45.214Z,55.91
2019-04-04T09:19:45.194Z,55.27
2019-04-04T09:20:45.188Z,51.56
2019-04-04T09:21:45.170Z,44.63
2019-04-04T09:22:45.160Z,43.02
2019-04-04T09:23:45.158Z,56.24
2019-04-04T09:24:45.149Z,44.15
2019-04-04T09:25:45.136Z,42.54
2019-04-04T09:26:45.123Z,45.76
2019-04-04T09:27:45.129Z,44.31
2019-04-04T09:28:45.108Z,43.99
2019-04-04T09:29:45.113Z,44.96
2019-04-04T09:30:45.092Z,43.99
2019-04-04T09:31:45.083Z,43.51
2019-04-04T09:32:45.076Z,45.12
2019-04-04T09:33:45.073Z,42.70
2019-04-04T09:34:45.111Z,42.70
2019-04-04T09:35:45.073Z,43.99
2019-04-04T09:36:45.049Z,51.24
2019-04-04T09:37:45.041Z,42.06
2019-04-04T09:38:45.036Z,42.22
2019-04-04T09:39:45.029Z,43.51
2019-04-04T09:40:45.112Z,42.38
2019-04-04T09:41:45.027Z,42.38
2019-04-04T09:42:45.033Z,42.86
2019-04-04T09:43:45.014Z,42.54
2019-04-04T09:44:45.007Z,44.96
2019-04-04T09:45:45.003Z,51.56
2019-04-04T09:46:44.988Z,43.67
2019-04-04T09:47:44.982Z,57.04
2019-04-04T09:48:44.975Z,55.11
2019-04-04T09:49:44.963Z,56.88
2019-04-04T09:50:44.955Z,58.33
2019-04-04T09:51:44.957Z,51.72
2019-04-04T09:52:44.942Z,51.24
2019-04-04T09:53:52.773Z,56.72
2019-04-04T09:54:46.942Z,53.50
2019-04-04T09:55:44.924Z,52.05
2019-04-04T09:56:44.919Z,53.98
2019-04-04T09:57:45.003Z,53.01
2019-04-04T09:58:44.896Z,44.47
2019-04-04T09:59:44.887Z,44.96
2019-04-04T10:00:44.883Z,42.38
2019-04-04T10:01:44.877Z,43.67
2019-04-04T10:02:44.889Z,45.60
2019-04-04T10:03:44.861Z,43.18
2019-04-04T10:04:44.855Z,44.15
2019-04-04T10:05:44.856Z,42.86
2019-04-04T10:06:44.846Z,42.86
2019-04-04T10:07:44.898Z,44.96
2019-04-04T10:08:44.817Z,42.54
2019-04-04T10:09:44.814Z,42.06
2019-04-04T10:10:44.829Z,43.34
2019-04-04T10:11:44.794Z,44.31
2019-04-04T10:12:44.808Z,44.15
2019-04-04T10:13:44.824Z,43.34
2019-04-04T10:14:44.809Z,43.67
2019-04-04T10:15:44.816Z,44.47
2019-04-04T10:16:44.810Z,43.51
2019-04-04T10:17:44.827Z,43.18
2019-04-04T10:18:44.837Z,43.34
2019-04-04T10:19:44.779Z,42.86
2019-04-04T10:20:44.795Z,42.06
2019-04-04T10:21:44.783Z,42.54
2019-04-04T10:22:44.788Z,43.51
2019-04-04T10:23:44.780Z,42.86
2019-04-04T10:24:44.750Z,46.89
2019-04-04T10:25:44.746Z,44.31
2019-04-04T10:26:44.735Z,43.67
2019-04-04T10:27:44.723Z,44.15
2019-04-04T10:28:44.732Z,42.22
2019-04-04T10:29:44.714Z,43.02
2019-04-04T10:30:44.708Z,43.34
2019-04-04T10:31:44.700Z,48.02
2019-04-04T10:32:44.698Z,44.79
2019-04-04T10:33:44.689Z,43.67
2019-04-04T10:34:44.686Z,44.31
2019-04-04T10:35:44.669Z,43.02
2019-04-04T10:36:44.660Z,46.41
2019-04-04T10:37:44.651Z,43.18
2019-04-04T10:38:44.645Z,43.18
2019-04-04T10:39:44.645Z,56.40
2019-04-04T10:40:44.634Z,46.08
2019-04-04T10:41:44.622Z,44.63
2019-04-04T10:42:44.625Z,45.76
2019-04-04T10:43:44.607Z,46.89
2019-04-04T10:44:44.601Z,45.12
2019-04-04T10:45:44.590Z,45.44
2019-04-04T10:46:44.584Z,45.28
2019-04-04T10:47:44.569Z,48.66
2019-04-04T10:48:44.570Z,43.99
2019-04-04T10:49:44.569Z,45.44
2019-04-04T10:50:44.559Z,43.02
2019-04-04T10:51:44.550Z,42.38
2019-04-04T10:52:44.540Z,42.22
2019-04-04T10:53:44.525Z,59.14
2019-04-04T10:54:44.525Z,43.51
2019-04-04T10:55:44.516Z,42.86
2019-04-04T10:56:44.515Z,45.12
2019-04-04T10:57:44.494Z,77.34
2019-04-04T10:58:44.489Z,84.27
2019-04-04T10:59:44.480Z,73.32
2019-04-04T11:00:44.476Z,68.00
2019-04-04T11:01:44.465Z,67.03
2019-04-04T11:02:44.501Z,54.62
2019-04-04T11:03:44.449Z,56.72
2019-04-04T11:04:44.438Z,50.43
2019-04-04T11:05:44.458Z,55.11
2019-04-04T11:06:44.442Z,53.66
2019-04-04T11:07:44.424Z,54.30
2019-04-04T11:08:44.418Z,55.59
2019-04-04T11:09:44.435Z,55.43
2019-04-04T11:10:44.442Z,54.14
2019-04-04T11:11:44.435Z,61.71
2019-04-04T11:12:44.413Z,57.69
2019-04-04T11:13:44.399Z,65.42
2019-04-04T11:14:44.394Z,60.26
2019-04-04T11:15:44.386Z,65.58
2019-04-04T11:16:44.380Z,58.01
2019-04-04T11:17:44.366Z,61.71
2019-04-04T11:18:44.361Z,58.17
2019-04-04T11:19:44.395Z,60.59
2019-04-04T11:20:44.344Z,76.86
2019-04-04T11:21:44.348Z,81.86
2019-04-04T11:22:44.336Z,79.44
2019-04-04T11:23:44.320Z,87.66
2019-04-04T11:24:44.321Z,87.17
2019-04-04T11:25:44.306Z,56.24
2019-04-04T11:26:44.307Z,97.00
2019-04-04T11:27:44.298Z,96.68
2019-04-04T11:28:44.278Z,72.35
2019-04-04T11:29:44.271Z,91.20
2019-04-04T11:30:44.263Z,81.86
2019-04-04T11:31:44.252Z,74.28
2019-04-04T11:32:44.253Z,61.71
2019-04-04T11:33:44.237Z,58.81
2019-04-04T11:34:53.191Z,81.53
2019-04-04T11:35:46.225Z,75.09
2019-04-04T11:36:44.240Z,55.43
2019-04-04T11:37:44.235Z,63.97
2019-04-04T11:38:44.395Z,58.65
2019-04-04T11:39:53.910Z,63.81
2019-04-04T11:40:46.211Z,78.47
2019-04-04T11:41:44.210Z,72.99
2019-04-04T11:42:44.200Z,71.54
2019-04-04T11:43:44.207Z,77.34
2019-04-04T11:44:44.178Z,79.76
2019-04-04T11:45:44.170Z,87.82
2019-04-04T11:46:44.162Z,89.59
2019-04-04T11:47:44.158Z,94.91
2019-04-04T11:48:44.154Z,93.13
2019-04-04T11:49:44.139Z,76.22
2019-04-04T11:50:44.138Z,89.75
2019-04-04T11:51:44.123Z,63.81
2019-04-04T11:52:44.115Z,87.33
2019-04-04T11:53:44.123Z,87.82
2019-04-04T11:54:44.118Z,86.04
2019-04-04T11:55:44.113Z,82.98
2019-04-04T11:56:44.098Z,83.31
2019-04-04T11:57:44.089Z,79.28
2019-04-04T11:58:44.089Z,83.63
2019-04-04T11:59:44.090Z,47.21
2019-04-04T12:00:44.105Z,42.70
2019-04-04T12:01:44.060Z,59.62
2019-04-04T12:02:44.052Z,80.57
2019-04-04T12:03:44.041Z,89.91
2019-04-04T12:04:44.043Z,95.55
2019-04-04T12:05:44.034Z,91.20
2019-04-04T12:06:44.020Z,94.91
2019-04-04T12:07:44.014Z,76.38
2019-04-04T12:08:44.014Z,82.82
2019-04-04T12:09:44.002Z,80.41
2019-04-04T12:10:43.998Z,79.92
2019-04-04T12:11:43.982Z,88.95
2019-04-04T12:12:43.978Z,95.87
2019-04-04T12:13:43.984Z,93.30
2019-04-04T12:14:43.962Z,73.15
2019-04-04T12:15:43.959Z,68.16
2019-04-04T12:16:43.941Z,72.99
2019-04-04T12:17:43.937Z,79.92
2019-04-04T12:18:43.931Z,77.18
2019-04-04T12:19:43.921Z,75.09
2019-04-04T12:20:43.919Z,79.44
2019-04-04T12:21:43.919Z,80.73
2019-04-04T12:22:43.913Z,80.08
2019-04-04T12:23:43.908Z,84.92
2019-04-04T12:24:43.901Z,91.68
2019-04-04T12:25:43.892Z,96.52
2019-04-04T12:26:43.889Z,95.07
2019-04-04T12:27:43.874Z,76.86
2019-04-04T12:28:43.869Z,76.38
2019-04-04T12:29:43.857Z,61.71
2019-04-04T12:30:43.849Z,67.19
2019-04-04T12:31:43.858Z,58.65
2019-04-04T12:32:43.835Z,62.84
2019-04-04T12:33:43.837Z,59.14
2019-04-04T12:34:43.848Z,60.91
2019-04-04T12:35:43.812Z,60.42
2019-04-04T12:36:43.808Z,62.68
2019-04-04T12:37:43.794Z,61.23
2019-04-04T12:38:43.786Z,64.29
2019-04-04T12:39:44.548Z,60.26
2019-04-04T12:40:44.774Z,61.23
2019-04-04T12:41:43.772Z,60.91
2019-04-04T12:42:43.766Z,60.75
2019-04-04T12:43:43.750Z,59.94
2019-04-04T12:44:43.742Z,69.29
2019-04-04T12:45:43.738Z,62.36
2019-04-04T12:46:43.756Z,63.65
2019-04-04T12:47:43.841Z,61.39
2019-04-04T12:48:44.026Z,65.42
2019-04-04T12:49:43.731Z,62.04
2019-04-04T12:50:43.729Z,63.33
2019-04-04T12:51:43.718Z,59.14
2019-04-04T12:52:43.711Z,59.30